createdAt,value
2023-04-02T00:01:49.759Z,10.00
2023-04-02T00:04:26.452Z,10.30
2023-04-02T00:07:18.733Z,9.50
2023-04-02T00:09:48.998Z,10.10
2023-04-02T00:12:21.679Z,10.50
2023-04-02T00:14:55.586Z,10.30
2023-04-02T00:17:27.231Z,10.60
2023-04-02T00:20:01.716Z,10.30
2023-04-02T00:22:34.299Z,10.10
2023-04-02T00:25:14.152Z,10.60
2023-04-02T00:27:45.638Z,10.30
2023-04-02T00:30:17.228Z,10.10
2023-04-02T00:32:49.021Z,9.90
2023-04-02T00:35:26.132Z,10.40
2023-04-02T00:40:29.024Z,10.80
2023-04-02T00:43:04.395Z,11.90
2023-04-02T00:45:38.718Z,11.60
2023-04-02T00:48:28.053Z,10.90
2023-04-02T00:51:00.740Z,11.80
2023-04-02T00:53:33.007Z,9.50
2023-04-02T00:56:04.551Z,12.90
2023-04-02T00:58:37.525Z,11.50
2023-04-02T01:01:20.041Z,11.50
2023-04-02T01:04:01.407Z,11.70
2023-04-02T01:06:34.610Z,13.20
2023-04-02T01:09:21.985Z,13.20
2023-04-02T01:12:12.260Z,11.70
2023-04-02T01:14:52.063Z,11.20
2023-04-02T01:17:33.002Z,11.00
2023-04-02T01:20:35.300Z,10.70
2023-04-02T01:23:09.071Z,10.20
2023-04-02T01:25:48.950Z,10.20
2023-04-02T01:28:23.481Z,9.40
2023-04-02T01:30:57.189Z,10.20
2023-04-02T01:33:34.114Z,8.50
2023-04-02T01:36:12.649Z,10.70
2023-04-02T01:38:51.822Z,7.70
2023-04-02T01:41:29.478Z,11.40
2023-04-02T01:44:07.089Z,10.10
2023-04-02T01:46:42.105Z,9.50
2023-04-02T01:49:19.007Z,8.90
2023-04-02T01:51:55.202Z,8.50
2023-04-02T01:54:28.925Z,8.10
2023-04-02T01:56:59.622Z,8.90
2023-04-02T01:59:33.259Z,7.90
2023-04-02T02:04:38.414Z,8.20
2023-04-02T02:07:16.038Z,8.50
2023-04-02T02:09:50.098Z,8.80
2023-04-02T02:12:20.707Z,7.10
2023-04-02T02:14:52.640Z,9.30
2023-04-02T02:17:34.472Z,8.00
2023-04-02T02:20:11.004Z,7.60
2023-04-02T02:22:45.238Z,8.90
2023-04-02T02:25:18.548Z,8.00
2023-04-02T02:27:56.894Z,7.40
2023-04-02T02:30:31.405Z,7.90
2023-04-02T02:33:08.673Z,7.50
2023-04-02T02:35:46.171Z,8.70
2023-04-02T02:38:43.189Z,7.90
2023-04-02T02:41:26.340Z,8.70
2023-04-02T02:44:03.949Z,7.00
2023-04-02T02:46:36.616Z,7.50
2023-04-02T02:49:14.762Z,6.30
2023-04-02T02:51:49.792Z,7.60
2023-04-02T02:54:24.748Z,8.00
2023-04-02T02:56:59.411Z,7.80
2023-04-02T02:59:32.746Z,8.50
2023-04-02T03:02:05.449Z,9.30
2023-04-02T03:04:37.124Z,6.80
2023-04-02T03:07:10.492Z,8.20
2023-04-02T03:09:50.891Z,7.80
2023-04-02T03:12:34.000Z,8.00
2023-04-02T03:15:12.036Z,7.00
2023-04-02T03:17:50.262Z,6.00
2023-04-02T03:20:27.120Z,6.20
2023-04-02T03:23:02.138Z,5.90
2023-04-02T03:25:40.067Z,6.70
2023-04-02T03:28:16.891Z,6.60
2023-04-02T03:30:53.983Z,5.80
2023-04-02T03:33:29.119Z,5.10
2023-04-02T03:36:05.146Z,4.90
2023-04-02T03:38:43.643Z,5.00
2023-04-02T03:41:21.109Z,5.20
2023-04-02T03:43:56.137Z,5.30
2023-04-02T03:46:32.722Z,5.60
2023-04-02T03:49:06.696Z,4.90
2023-04-02T03:51:41.946Z,5.10
2023-04-02T03:54:16.828Z,5.70
2023-04-02T03:56:48.867Z,6.10
2023-04-02T03:59:32.935Z,6.00
2023-04-02T04:02:14.142Z,6.80
2023-04-02T04:04:45.930Z,6.30
2023-04-02T04:07:23.709Z,5.50
2023-04-02T04:09:56.496Z,5.90
2023-04-02T04:12:32.321Z,7.20
2023-04-02T04:15:08.532Z,7.10
2023-04-02T04:17:51.671Z,6.80
2023-04-02T04:20:28.113Z,6.20
2023-04-02T04:23:12.124Z,6.70
2023-04-02T04:25:42.916Z,5.60
2023-04-02T04:28:27.822Z,6.70
2023-04-02T04:31:04.328Z,5.60
2023-04-02T04:33:44.478Z,6.00
2023-04-02T04:36:28.652Z,6.10
2023-04-02T04:39:14.640Z,6.20
2023-04-02T04:41:49.723Z,6.10
2023-04-02T04:44:24.381Z,6.80
2023-04-02T04:47:03.066Z,5.80
2023-04-02T04:49:39.841Z,6.00
2023-04-02T04:52:16.447Z,5.90
2023-04-02T04:54:49.533Z,6.70
2023-04-02T04:57:30.959Z,7.50
2023-04-02T05:00:08.098Z,6.00
2023-04-02T05:02:46.741Z,6.90
2023-04-02T05:05:26.300Z,6.40
2023-04-02T05:08:01.154Z,7.60
2023-04-02T05:10:37.961Z,7.90
2023-04-02T05:13:16.801Z,9.50
2023-04-02T05:15:51.696Z,8.70
2023-04-02T05:18:31.222Z,8.10
2023-04-02T05:21:07.937Z,9.80
2023-04-02T05:26:17.476Z,7.90
2023-04-02T05:28:53.956Z,10.40
2023-04-02T05:31:29.043Z,8.80
2023-04-02T05:33:59.804Z,9.40
2023-04-02T05:36:32.688Z,7.60
2023-04-02T05:39:09.550Z,9.30
2023-04-02T05:41:47.565Z,7.00
2023-04-02T05:44:30.415Z,7.80
2023-04-02T05:47:04.431Z,7.80
2023-04-02T05:49:43.229Z,7.20
2023-04-02T05:52:21.121Z,7.70
2023-04-02T05:54:57.823Z,7.80
2023-04-02T06:00:24.600Z,6.70
2023-04-02T06:03:07.348Z,7.60
2023-04-02T06:05:44.254Z,7.40
2023-04-02T06:08:22.755Z,7.50
2023-04-02T06:11:00.953Z,7.40
2023-04-02T06:13:32.008Z,6.90
2023-04-02T06:16:03.879Z,8.70
2023-04-02T06:18:38.484Z,8.00
2023-04-02T06:21:09.975Z,7.50
2023-04-02T06:23:46.690Z,8.10
2023-04-02T06:26:23.711Z,5.80
2023-04-02T06:28:58.635Z,6.30
2023-04-02T06:31:37.499Z,5.80
2023-04-02T06:34:16.532Z,5.50
2023-04-02T06:36:56.355Z,4.90
2023-04-02T06:39:28.864Z,5.10
2023-04-02T06:42:04.219Z,4.10
2023-04-02T06:44:52.596Z,4.30
2023-04-02T06:47:47.989Z,3.70
2023-04-02T06:50:31.261Z,3.60
2023-04-02T06:53:06.509Z,3.80
2023-04-02T06:55:44.601Z,4.20
2023-04-02T06:58:16.755Z,4.00
2023-04-02T07:00:51.081Z,4.20
2023-04-02T07:03:33.569Z,3.60
2023-04-02T07:06:19.615Z,4.30
2023-04-02T07:08:51.450Z,4.10
2023-04-02T07:11:24.394Z,5.00
2023-04-02T07:13:57.405Z,3.80
2023-04-02T07:16:31.582Z,3.70
2023-04-02T07:19:04.115Z,4.30
2023-04-02T07:21:36.564Z,4.40
2023-04-02T07:24:07.603Z,3.70
2023-04-02T07:26:38.017Z,4.80
2023-04-02T07:29:09.604Z,4.80
2023-04-02T07:31:40.818Z,4.00
2023-04-02T07:34:11.694Z,4.10
2023-04-02T07:36:41.980Z,4.40
2023-04-02T07:39:12.273Z,3.70
2023-04-02T07:41:55.820Z,3.80
2023-04-02T07:44:26.122Z,3.50
2023-04-02T07:46:56.901Z,3.10
2023-04-02T07:49:27.263Z,3.90
2023-04-02T07:51:57.651Z,3.70
2023-04-02T07:54:28.246Z,3.30
2023-04-02T07:56:58.666Z,3.50
2023-04-02T07:59:28.935Z,3.10
2023-04-02T08:01:59.705Z,3.30
2023-04-02T08:04:30.036Z,3.90
2023-04-02T08:07:01.685Z,3.30
2023-04-02T08:09:31.982Z,3.20
2023-04-02T08:12:02.305Z,2.80
2023-04-02T08:14:32.636Z,3.60
2023-04-02T08:17:03.014Z,3.90
2023-04-02T08:19:36.927Z,3.70
2023-04-02T08:22:15.191Z,3.80
2023-04-02T08:24:45.542Z,2.80
2023-04-02T08:27:16.261Z,3.30
2023-04-02T08:29:46.712Z,3.20
2023-04-02T08:32:17.968Z,3.20
2023-04-02T08:34:48.452Z,3.60
2023-04-02T08:37:18.757Z,3.40
2023-04-02T08:39:49.070Z,3.20
2023-04-02T08:42:30.481Z,2.70
2023-04-02T08:45:25.049Z,2.40
2023-04-02T08:47:59.913Z,2.60
2023-04-02T08:50:34.556Z,2.80
2023-04-02T08:53:07.632Z,3.40
2023-04-02T08:55:43.252Z,2.60
2023-04-02T08:58:27.839Z,3.40
2023-04-02T09:01:01.997Z,3.00
2023-04-02T09:03:36.949Z,3.40
2023-04-02T09:06:14.281Z,3.10
2023-04-02T09:08:48.988Z,3.40
2023-04-02T09:11:25.935Z,2.90
2023-04-02T09:13:58.591Z,3.40
2023-04-02T09:16:41.817Z,2.70
2023-04-02T09:19:20.704Z,3.30
2023-04-02T09:22:02.079Z,3.00
2023-04-02T09:24:32.557Z,2.90
2023-04-02T09:27:03.052Z,2.90
2023-04-02T09:29:46.397Z,3.50
2023-04-02T09:32:34.078Z,3.10
2023-04-02T09:35:25.261Z,3.50
2023-04-02T09:38:22.997Z,3.70
2023-04-02T09:41:01.367Z,4.00
2023-04-02T09:43:34.047Z,3.70
2023-04-02T09:46:08.154Z,3.50
2023-04-02T09:48:43.983Z,3.50
2023-04-02T09:51:17.605Z,3.70
2023-04-02T09:53:50.123Z,3.60
2023-04-02T09:56:23.174Z,3.10
2023-04-02T09:59:07.264Z,3.50
2023-04-02T10:01:40.028Z,3.20
2023-04-02T10:04:38.711Z,3.30
2023-04-02T10:07:30.260Z,3.20
2023-04-02T10:10:02.503Z,2.60
2023-04-02T10:12:42.138Z,3.10
2023-04-02T10:15:19.917Z,3.10
2023-04-02T10:17:58.282Z,2.60
2023-04-02T10:20:34.044Z,2.80
2023-04-02T10:23:06.881Z,2.60
2023-04-02T10:25:46.712Z,2.70
2023-04-02T10:28:29.951Z,3.20
2023-04-02T10:31:13.127Z,2.80
2023-04-02T10:33:51.318Z,3.40
2023-04-02T10:36:35.583Z,2.90
2023-04-02T10:39:12.480Z,2.70
2023-04-02T10:41:50.430Z,3.10
2023-04-02T10:44:33.491Z,3.10
2023-04-02T10:47:14.027Z,2.90
2023-04-02T10:49:51.563Z,2.70
2023-04-02T10:52:27.493Z,3.10
2023-04-02T10:55:02.214Z,2.80
2023-04-02T10:57:38.358Z,3.40
2023-04-02T11:00:19.416Z,3.50
2023-04-02T11:02:56.183Z,3.40
2023-04-02T11:08:04.691Z,2.30
2023-04-02T11:10:39.654Z,3.30
2023-04-02T11:13:21.581Z,3.00
2023-04-02T11:15:52.107Z,2.80
2023-04-02T11:18:34.274Z,2.80
2023-04-02T11:21:06.736Z,2.70
2023-04-02T11:23:39.974Z,3.40
2023-04-02T11:29:27.900Z,2.90
2023-04-02T11:32:29.812Z,2.80
2023-04-02T11:35:28.284Z,2.80
2023-04-02T11:38:00.370Z,3.30
2023-04-02T11:40:51.669Z,3.30
2023-04-02T11:43:52.728Z,4.20
2023-04-02T11:46:43.167Z,2.70
2023-04-02T11:49:38.450Z,4.70
2023-04-02T11:52:26.670Z,2.80
2023-04-02T11:55:30.668Z,2.80
2023-04-02T11:58:39.221Z,2.80
2023-04-02T12:01:43.916Z,3.30
2023-04-02T12:04:54.928Z,2.60
2023-04-02T12:07:52.171Z,3.10
2023-04-02T12:10:24.630Z,3.60
2023-04-02T12:12:55.074Z,3.60
2023-04-02T12:15:44.390Z,2.90
2023-04-02T12:18:20.283Z,3.90
2023-04-02T12:20:54.990Z,2.50
2023-04-02T12:23:32.860Z,3.60
2023-04-02T12:26:06.511Z,3.00
2023-04-02T12:28:38.793Z,3.00
2023-04-02T12:31:17.659Z,3.10
2023-04-02T12:33:52.744Z,4.00
2023-04-02T12:36:25.704Z,2.90
2023-04-02T12:38:58.206Z,4.00
2023-04-02T12:41:32.016Z,3.00
2023-04-02T12:44:04.613Z,3.40
2023-04-02T12:46:37.834Z,3.90
2023-04-02T12:49:13.385Z,2.80
2023-04-02T12:51:46.085Z,2.80
2023-04-02T12:54:18.463Z,3.40
2023-04-02T12:56:49.306Z,3.20
2023-04-02T12:59:36.736Z,2.70
2023-04-02T13:02:20.352Z,3.50
2023-04-02T13:04:52.595Z,3.20
2023-04-02T13:07:25.783Z,3.20
2023-04-02T13:09:58.374Z,3.00
2023-04-02T13:12:33.302Z,3.30
2023-04-02T13:15:06.471Z,3.00
2023-04-02T13:17:45.640Z,3.00
2023-04-02T13:20:39.724Z,3.10
2023-04-02T13:23:36.497Z,3.30
2023-04-02T13:26:17.198Z,3.40
2023-04-02T13:28:58.521Z,3.60
2023-04-02T13:31:30.218Z,2.90
2023-04-02T13:34:02.225Z,2.90
2023-04-02T13:36:32.941Z,2.80
2023-04-02T13:39:03.275Z,2.90
2023-04-02T13:41:36.086Z,3.20
2023-04-02T13:44:06.704Z,3.00
2023-04-02T13:46:37.956Z,3.20
2023-04-02T13:49:11.346Z,3.60
2023-04-02T13:51:45.833Z,3.20
2023-04-02T13:54:23.191Z,3.40
2023-04-02T13:56:53.571Z,3.10
2023-04-02T13:59:23.967Z,2.60
2023-04-02T14:02:00.376Z,3.20
2023-04-02T14:04:33.841Z,2.90
2023-04-02T14:07:27.698Z,3.20
2023-04-02T14:10:14.132Z,2.80
2023-04-02T14:12:54.885Z,2.50
2023-04-02T14:15:40.402Z,3.40
2023-04-02T14:18:25.292Z,2.80
2023-04-02T14:21:05.614Z,5.00
2023-04-02T14:23:49.210Z,2.90
2023-04-02T14:26:26.385Z,3.20
2023-04-02T14:29:03.248Z,2.40
2023-04-02T14:31:37.858Z,2.80
2023-04-02T14:38:55.226Z,3.30
2023-04-02T14:41:32.853Z,3.60
2023-04-02T14:44:04.408Z,3.10
2023-04-02T14:46:37.351Z,3.00
2023-04-02T14:49:20.790Z,3.40
2023-04-02T14:51:52.150Z,3.40
2023-04-02T14:54:30.071Z,3.80
2023-04-02T14:57:05.424Z,3.30
2023-04-02T14:59:37.331Z,2.50
2023-04-02T15:02:15.964Z,3.70
2023-04-02T15:04:50.681Z,2.80
2023-04-02T15:07:23.710Z,2.60
2023-04-02T15:10:06.333Z,3.40
2023-04-02T15:12:37.415Z,3.00
2023-04-02T15:15:24.343Z,3.00
2023-04-02T15:18:00.940Z,3.40
2023-04-02T15:20:36.699Z,3.20
2023-04-02T15:23:15.801Z,3.50
2023-04-02T15:25:47.444Z,2.70
2023-04-02T15:28:26.317Z,2.90
2023-04-02T15:31:01.113Z,3.40
2023-04-02T15:33:43.441Z,3.00
2023-04-02T15:36:42.001Z,3.10
2023-04-02T15:39:36.220Z,3.10
2023-04-02T15:42:16.009Z,2.90
2023-04-02T15:44:58.290Z,2.40
2023-04-02T15:47:36.709Z,2.90
2023-04-02T15:50:23.764Z,2.90
2023-04-02T15:52:58.135Z,2.90
2023-04-02T15:55:32.516Z,2.70
2023-04-02T15:58:21.368Z,2.90
2023-04-02T16:00:56.528Z,2.60
2023-04-02T16:04:01.606Z,3.00
2023-04-02T16:06:36.306Z,2.60
2023-04-02T16:09:16.407Z,2.50
2023-04-02T16:11:43.988Z,2.60
2023-04-02T16:14:21.649Z,2.50
2023-04-02T16:16:51.894Z,2.70
2023-04-02T16:19:26.772Z,2.90
2023-04-02T16:22:03.069Z,2.60
2023-04-02T16:24:30.669Z,2.30
2023-04-02T16:27:08.187Z,2.20
2023-04-02T16:29:55.856Z,3.30
2023-04-02T16:32:50.073Z,2.90
2023-04-02T16:38:07.192Z,2.90
2023-04-02T16:40:41.724Z,2.80
2023-04-02T16:43:25.344Z,3.50
2023-04-02T16:46:01.403Z,3.20
2023-04-02T16:48:38.578Z,3.30
2023-04-02T16:51:13.868Z,3.50
2023-04-02T16:54:00.933Z,2.80
2023-04-02T16:59:13.357Z,2.80
2023-04-02T17:01:47.770Z,2.70
2023-04-02T17:04:45.567Z,2.30
2023-04-02T17:07:25.610Z,2.60
2023-04-02T17:10:01.875Z,2.50
2023-04-02T17:12:35.909Z,2.80
2023-04-02T17:15:26.702Z,2.80
2023-04-02T17:17:58.388Z,2.30
2023-04-02T17:20:27.444Z,2.80
2023-04-02T17:22:56.015Z,2.20
2023-04-02T17:25:32.047Z,2.70
2023-04-02T17:28:02.341Z,2.50
2023-04-02T17:30:38.919Z,2.40
2023-04-02T17:33:10.842Z,2.10
2023-04-02T17:35:49.872Z,2.00
2023-04-02T17:38:24.485Z,2.60
2023-04-02T17:40:58.085Z,2.60
2023-04-02T17:43:36.584Z,2.30
2023-04-02T17:46:08.633Z,2.50
2023-04-02T17:48:44.288Z,2.30
2023-04-02T17:51:18.711Z,2.70
2023-04-02T17:54:00.420Z,2.50
2023-04-02T17:56:45.808Z,2.20
2023-04-02T17:59:26.391Z,2.40
2023-04-02T18:02:04.758Z,2.70
2023-04-02T18:04:41.243Z,2.10
2023-04-02T18:07:20.772Z,2.70
2023-04-02T18:09:58.366Z,2.90
2023-04-02T18:12:39.355Z,2.90
2023-04-02T18:15:30.337Z,2.60
2023-04-02T18:18:08.776Z,2.40
2023-04-02T18:20:46.693Z,2.30
2023-04-02T18:23:23.870Z,2.20
2023-04-02T18:26:01.118Z,2.30
2023-04-02T18:28:46.417Z,2.30
2023-04-02T18:31:22.260Z,2.80
2023-04-02T18:34:07.160Z,2.70
2023-04-02T18:36:46.468Z,2.70
2023-04-02T18:39:23.856Z,3.50
2023-04-02T18:42:01.584Z,3.20
2023-04-02T18:44:48.162Z,3.00
2023-04-02T18:47:23.399Z,2.70
2023-04-02T18:50:02.234Z,3.40
2023-04-02T18:52:30.567Z,3.40
2023-04-02T18:55:04.101Z,2.80
2023-04-02T18:57:38.244Z,3.00
2023-04-02T19:00:23.890Z,3.50
2023-04-02T19:02:57.100Z,3.00
2023-04-02T19:05:34.517Z,3.90
2023-04-02T19:08:08.395Z,3.90
2023-04-02T19:10:39.000Z,3.30
2023-04-02T19:13:14.250Z,4.40
2023-04-02T19:16:01.910Z,4.40
2023-04-02T19:18:40.776Z,3.60
2023-04-02T19:21:15.002Z,3.30
2023-04-02T19:24:02.613Z,3.40
2023-04-02T19:29:13.839Z,3.60
2023-04-02T19:31:53.158Z,3.30
2023-04-02T19:34:33.958Z,3.90
2023-04-02T19:37:05.364Z,2.90
2023-04-02T19:39:48.549Z,2.70
2023-04-02T19:42:30.700Z,2.70
2023-04-02T19:44:58.887Z,2.60
2023-04-02T19:47:26.562Z,2.80
2023-04-02T19:49:55.531Z,3.00
2023-04-02T19:52:23.196Z,3.60
2023-04-02T19:54:50.770Z,2.60
2023-04-02T19:57:18.786Z,2.50
2023-04-02T19:59:46.356Z,2.50
2023-04-02T20:02:13.871Z,2.70
2023-04-02T20:04:43.559Z,2.80
2023-04-02T20:07:11.130Z,2.80
2023-04-02T20:09:38.700Z,2.50
2023-04-02T20:12:06.686Z,2.60
2023-04-02T20:14:34.300Z,2.60
2023-04-02T20:17:01.938Z,2.60
2023-04-02T20:19:29.952Z,2.60
2023-04-02T20:21:57.560Z,2.30
2023-04-02T20:24:25.214Z,2.60
2023-04-02T20:26:52.875Z,2.30
2023-04-02T20:29:22.224Z,2.30
2023-04-02T20:31:50.481Z,2.80
2023-04-02T20:34:18.064Z,2.50
2023-04-02T20:36:46.109Z,2.50
2023-04-02T20:39:18.602Z,1.90
2023-04-02T20:41:46.315Z,1.90
2023-04-02T20:44:14.435Z,2.10
2023-04-02T20:46:42.091Z,1.80
2023-04-02T20:49:10.292Z,1.80
2023-04-02T20:51:37.895Z,2.20
2023-04-02T20:54:05.747Z,1.80
2023-04-02T20:56:33.307Z,1.50
2023-04-02T20:59:01.080Z,1.20
2023-04-02T21:01:30.168Z,1.30
2023-04-02T21:03:59.290Z,1.40
2023-04-02T21:06:29.018Z,2.00
2023-04-02T21:08:56.622Z,1.30
2023-04-02T21:11:25.564Z,1.60
2023-04-02T21:13:53.142Z,1.80
2023-04-02T21:16:22.894Z,2.30
2023-04-02T21:18:52.343Z,1.70
2023-04-02T21:21:21.020Z,1.60
2023-04-02T21:23:53.368Z,1.30
2023-04-02T21:26:21.088Z,1.40
2023-04-02T21:28:48.685Z,1.70
2023-04-02T21:31:18.079Z,1.60
2023-04-02T21:33:47.714Z,1.40
2023-04-02T21:36:16.832Z,1.40
2023-04-02T21:38:46.428Z,1.10
2023-04-02T21:41:16.140Z,1.20
2023-04-02T21:43:45.312Z,1.50
2023-04-02T21:46:12.865Z,1.60
2023-04-02T21:48:41.213Z,1.40
2023-04-02T21:51:11.161Z,1.50
2023-04-02T21:53:39.543Z,1.60
2023-04-02T21:56:09.355Z,1.30
2023-04-02T21:58:36.877Z,2.10
2023-04-02T22:01:08.865Z,1.70
2023-04-02T22:03:39.325Z,1.70
2023-04-02T22:06:09.341Z,2.00
2023-04-02T22:08:38.595Z,1.70
2023-04-02T22:11:08.778Z,1.70
2023-04-02T22:13:37.304Z,2.10
2023-04-02T22:16:07.317Z,1.80
2023-04-02T22:18:34.990Z,1.50
2023-04-02T22:21:02.579Z,1.50
2023-04-02T22:23:31.058Z,1.90
2023-04-02T22:26:00.382Z,1.70
2023-04-02T22:28:28.521Z,1.70
2023-04-02T22:31:02.494Z,1.30
2023-04-02T22:33:31.725Z,1.70
2023-04-02T22:35:59.484Z,1.50
2023-04-02T22:38:28.071Z,1.30
2023-04-02T22:41:05.079Z,1.40
2023-04-02T22:45:59.555Z,1.60
2023-04-02T22:48:27.460Z,1.60
2023-04-02T22:50:55.357Z,1.70
2023-04-02T22:53:23.705Z,1.20
2023-04-02T22:55:52.117Z,1.40
2023-04-02T22:58:20.049Z,1.50
2023-04-02T23:00:47.716Z,1.10
2023-04-02T23:03:15.508Z,1.20
2023-04-02T23:05:45.153Z,1.70
2023-04-02T23:08:12.743Z,1.40
2023-04-02T23:10:40.723Z,1.40
2023-04-02T23:13:08.526Z,1.30
2023-04-02T23:15:36.090Z,1.50
2023-04-02T23:18:04.384Z,1.40
2023-04-02T23:20:31.979Z,1.50
2023-04-02T23:22:59.585Z,1.30
2023-04-02T23:25:27.144Z,1.90
2023-04-02T23:27:54.977Z,1.40
2023-04-02T23:30:22.528Z,1.70
2023-04-02T23:32:50.076Z,1.60
2023-04-02T23:35:17.776Z,1.80
2023-04-02T23:37:47.916Z,1.50
2023-04-02T23:40:17.159Z,2.10
2023-04-02T23:42:44.758Z,1.40
2023-04-02T23:45:12.490Z,1.50
2023-04-02T23:47:40.124Z,1.80
2023-04-02T23:50:09.357Z,1.40
2023-04-02T23:52:36.943Z,1.70
2023-04-02T23:55:05.929Z,1.30
2023-04-02T23:57:33.585Z,1.90
